createdAt,value
2022-11-19T00:02:08.111Z,14.05
2022-11-19T00:04:37.241Z,14.63
2022-11-19T00:07:05.346Z,13.75
2022-11-19T00:09:33.123Z,16.38
2022-11-19T00:12:18.368Z,15.65
2022-11-19T00:14:46.125Z,14.82
2022-11-19T00:17:13.843Z,12.55
2022-11-19T00:19:42.917Z,11.48
2022-11-19T00:22:10.584Z,11.55
2022-11-19T00:24:39.525Z,10.98
2022-11-19T00:27:07.213Z,10.80
2022-11-19T00:29:34.921Z,10.75
2022-11-19T00:32:02.618Z,11.65
2022-11-19T00:34:30.289Z,11.80
2022-11-19T00:36:59.409Z,10.95
2022-11-19T00:39:27.107Z,11.50
2022-11-19T00:41:54.825Z,11.10
2022-11-19T00:44:22.483Z,10.75
2022-11-19T00:46:50.210Z,11.90
2022-11-19T00:49:18.329Z,11.23
2022-11-19T00:51:46.477Z,12.55
2022-11-19T00:54:15.718Z,11.30
2022-11-19T00:56:43.443Z,11.43
2022-11-19T00:59:11.483Z,13.00
2022-11-19T01:01:39.579Z,10.98
2022-11-19T01:04:07.430Z,11.88
2022-11-19T01:06:35.157Z,11.27
2022-11-19T01:09:02.897Z,11.77
2022-11-19T01:11:34.411Z,11.57
2022-11-19T01:14:03.340Z,10.35
2022-11-19T01:16:33.681Z,11.50
2022-11-19T01:19:01.977Z,10.25
2022-11-19T01:21:31.398Z,11.45
2022-11-19T01:24:00.428Z,10.35
2022-11-19T01:26:29.074Z,10.27
2022-11-19T01:28:58.560Z,9.27
2022-11-19T01:31:28.139Z,9.70
2022-11-19T01:33:56.239Z,8.98
2022-11-19T01:36:25.087Z,9.40
2022-11-19T01:38:54.301Z,9.80
2022-11-19T01:41:23.590Z,10.85
2022-11-19T01:43:53.491Z,11.18
2022-11-19T01:46:24.265Z,10.85
2022-11-19T01:48:54.886Z,10.20
2022-11-19T01:51:26.053Z,9.98
2022-11-19T01:53:56.770Z,11.82
2022-11-19T01:56:24.932Z,13.13
2022-11-19T01:58:57.852Z,13.48
2022-11-19T02:01:28.876Z,13.23
2022-11-19T02:03:56.721Z,12.95
2022-11-19T02:06:24.536Z,13.27
2022-11-19T02:08:53.107Z,12.88
2022-11-19T02:11:50.441Z,12.63
2022-11-19T02:14:38.043Z,13.75
2022-11-19T02:17:19.722Z,13.82
2022-11-19T02:20:11.513Z,14.30
2022-11-19T02:23:00.707Z,14.43
2022-11-19T02:25:46.447Z,14.18
2022-11-19T02:28:33.097Z,14.38
2022-11-19T02:31:09.919Z,13.95
2022-11-19T02:33:45.730Z,14.43
2022-11-19T02:36:21.004Z,15.18
2022-11-19T02:38:53.593Z,15.15
2022-11-19T02:41:35.624Z,16.45
2022-11-19T02:44:39.296Z,16.58
2022-11-19T02:47:13.460Z,16.30
2022-11-19T02:49:44.249Z,17.08
2022-11-19T02:52:12.897Z,17.77
2022-11-19T02:54:40.784Z,18.23
2022-11-19T02:57:11.758Z,17.52
2022-11-19T02:59:59.048Z,17.30
2022-11-19T03:02:52.121Z,16.95
2022-11-19T03:05:23.145Z,18.60
2022-11-19T03:07:51.442Z,18.83
2022-11-19T03:10:21.156Z,18.10
2022-11-19T03:12:54.535Z,17.10
2022-11-19T03:15:46.765Z,19.10
2022-11-19T03:18:20.422Z,18.13
2022-11-19T03:20:53.290Z,18.70
2022-11-19T03:23:25.895Z,18.77
2022-11-19T03:25:57.810Z,19.17
2022-11-19T03:28:28.226Z,19.25
2022-11-19T03:30:59.673Z,19.00
2022-11-19T03:33:32.742Z,18.98
2022-11-19T03:36:05.097Z,19.30
2022-11-19T03:38:37.861Z,20.23
2022-11-19T03:41:08.267Z,19.98
2022-11-19T03:43:39.999Z,19.48
2022-11-19T03:46:14.296Z,19.65
2022-11-19T03:48:46.437Z,20.63
2022-11-19T03:51:17.219Z,21.58
2022-11-19T03:53:45.005Z,20.75
2022-11-19T03:56:16.249Z,22.23
2022-11-19T03:58:47.393Z,21.15
2022-11-19T04:01:15.914Z,21.42
2022-11-19T04:04:05.575Z,21.50
2022-11-19T04:06:33.429Z,23.30
2022-11-19T04:09:01.118Z,23.33
2022-11-19T04:11:28.864Z,22.88
2022-11-19T04:13:56.607Z,21.77
2022-11-19T04:16:24.377Z,23.27
2022-11-19T04:18:53.510Z,21.10
2022-11-19T04:21:21.237Z,21.55
2022-11-19T04:23:48.900Z,22.00
2022-11-19T04:26:16.670Z,23.33
2022-11-19T04:28:44.349Z,23.15
2022-11-19T04:31:16.548Z,22.15
2022-11-19T04:33:45.935Z,24.02
2022-11-19T04:36:15.003Z,24.58
2022-11-19T04:38:42.709Z,25.27
2022-11-19T04:41:10.454Z,28.65
2022-11-19T04:43:38.144Z,24.73
2022-11-19T04:46:06.035Z,27.02
2022-11-19T04:48:33.689Z,26.75
2022-11-19T04:51:01.417Z,27.70
2022-11-19T04:53:30.478Z,26.17
2022-11-19T04:55:58.166Z,28.00
2022-11-19T04:58:25.939Z,27.42
2022-11-19T05:00:53.769Z,27.77
2022-11-19T05:03:21.485Z,26.63
2022-11-19T05:05:49.218Z,27.10
2022-11-19T05:08:16.946Z,26.20
2022-11-19T05:10:46.117Z,27.42
2022-11-19T05:13:14.008Z,27.40
2022-11-19T05:15:41.764Z,26.50
2022-11-19T05:18:09.493Z,26.33
2022-11-19T05:20:37.183Z,26.33
2022-11-19T05:23:05.111Z,26.23
2022-11-19T05:25:32.942Z,26.10
2022-11-19T05:28:02.031Z,26.27
2022-11-19T05:30:29.887Z,26.90
2022-11-19T05:32:57.594Z,26.83
2022-11-19T05:35:25.401Z,26.02
2022-11-19T05:37:53.066Z,26.48
2022-11-19T05:40:20.917Z,25.33
2022-11-19T05:42:48.608Z,26.30
2022-11-19T05:45:17.814Z,26.80
2022-11-19T05:47:48.578Z,26.42
2022-11-19T05:50:16.755Z,25.40
2022-11-19T05:52:44.402Z,25.65
2022-11-19T05:55:12.052Z,26.25
2022-11-19T05:57:39.710Z,26.40
2022-11-19T06:00:08.529Z,25.73
2022-11-19T06:02:37.628Z,27.45
2022-11-19T06:05:06.179Z,27.15
2022-11-19T06:07:33.928Z,28.08
2022-11-19T06:10:01.709Z,27.08
2022-11-19T06:12:29.439Z,26.92
2022-11-19T06:14:57.148Z,25.80
2022-11-19T06:17:24.827Z,26.83
2022-11-19T06:19:53.850Z,27.25
2022-11-19T06:22:21.529Z,26.20
2022-11-19T06:24:49.168Z,25.88
2022-11-19T06:27:16.903Z,26.10
2022-11-19T06:29:44.766Z,26.70
2022-11-19T06:32:12.612Z,25.90
2022-11-19T06:34:40.331Z,26.27
2022-11-19T06:37:09.560Z,26.75
2022-11-19T06:39:37.264Z,25.88
2022-11-19T06:42:18.972Z,25.92
2022-11-19T06:44:46.646Z,26.35
2022-11-19T06:47:14.362Z,25.70
2022-11-19T06:49:42.057Z,25.92
2022-11-19T06:52:11.182Z,26.67
2022-11-19T06:54:42.881Z,27.15
2022-11-19T06:57:10.894Z,25.10
2022-11-19T06:59:39.213Z,25.83
2022-11-19T07:02:08.437Z,25.90
2022-11-19T07:04:36.169Z,25.98
2022-11-19T07:07:04.808Z,23.42
2022-11-19T07:09:33.993Z,24.98
2022-11-19T07:12:01.874Z,24.95
2022-11-19T07:14:29.572Z,24.17
2022-11-19T07:16:57.812Z,23.55
2022-11-19T07:19:25.589Z,24.90
2022-11-19T07:21:53.303Z,23.30
2022-11-19T07:24:21.182Z,24.52
2022-11-19T07:26:50.338Z,24.20
2022-11-19T07:29:18.594Z,25.98
2022-11-19T07:31:50.352Z,23.45
2022-11-19T07:34:18.934Z,18.53
2022-11-19T07:36:47.436Z,22.73
2022-11-19T07:39:15.130Z,23.33
2022-11-19T07:42:00.631Z,23.15
2022-11-19T07:44:29.619Z,22.10
2022-11-19T07:46:57.408Z,22.98
2022-11-19T07:49:26.062Z,23.15
2022-11-19T07:51:54.033Z,21.83
2022-11-19T07:54:21.850Z,21.10
2022-11-19T07:56:49.799Z,22.30
2022-11-19T07:59:17.983Z,23.67
2022-11-19T08:01:47.395Z,22.40
2022-11-19T08:04:15.120Z,22.05
2022-11-19T08:06:42.861Z,21.63
2022-11-19T08:09:10.594Z,21.33
2022-11-19T08:11:38.262Z,20.00
2022-11-19T08:14:05.949Z,20.50
2022-11-19T08:16:51.787Z,21.40
2022-11-19T08:19:21.135Z,20.23
2022-11-19T08:21:49.239Z,20.90
2022-11-19T08:24:19.632Z,20.13
2022-11-19T08:26:48.889Z,22.25
2022-11-19T08:29:18.501Z,21.40
2022-11-19T08:31:47.486Z,19.73
2022-11-19T08:34:15.818Z,21.48
2022-11-19T08:36:45.327Z,22.95
2022-11-19T08:39:13.271Z,21.30
2022-11-19T08:41:58.603Z,20.60
2022-11-19T08:44:26.398Z,20.27
2022-11-19T08:46:54.157Z,19.10
2022-11-19T08:49:21.902Z,21.17
2022-11-19T08:51:51.000Z,20.50
2022-11-19T08:54:19.290Z,19.38
2022-11-19T08:56:47.349Z,20.90
2022-11-19T08:59:15.113Z,20.13
2022-11-19T09:01:42.814Z,19.42
2022-11-19T09:04:10.602Z,19.23
2022-11-19T09:06:38.288Z,19.77
2022-11-19T09:09:07.477Z,19.05
2022-11-19T09:11:41.343Z,18.83
2022-11-19T09:14:10.861Z,18.05
2022-11-19T09:16:38.678Z,18.40
2022-11-19T09:19:06.395Z,17.27
2022-11-19T09:21:34.126Z,16.58
2022-11-19T09:24:01.860Z,16.45
2022-11-19T09:26:30.944Z,16.85
2022-11-19T09:28:58.688Z,16.15
2022-11-19T09:31:26.412Z,15.30
2022-11-19T09:33:55.573Z,15.57
2022-11-19T09:36:23.401Z,16.40
2022-11-19T09:38:51.133Z,16.50
2022-11-19T09:41:40.668Z,15.77
2022-11-19T09:44:20.766Z,14.82
2022-11-19T09:46:58.324Z,17.40
2022-11-19T09:49:29.879Z,15.75
2022-11-19T09:52:04.835Z,16.53
2022-11-19T09:54:33.205Z,15.75
2022-11-19T09:57:11.080Z,15.55
2022-11-19T09:59:41.436Z,15.55
2022-11-19T10:02:18.254Z,15.57
2022-11-19T10:04:48.267Z,15.98
2022-11-19T10:07:24.996Z,14.85
2022-11-19T10:10:12.756Z,14.60
2022-11-19T10:13:11.607Z,15.88
2022-11-19T10:15:54.421Z,14.57
2022-11-19T10:18:30.721Z,14.45
2022-11-19T10:21:03.790Z,15.73
2022-11-19T10:23:47.032Z,14.30
2022-11-19T10:26:18.061Z,15.98
2022-11-19T10:28:54.912Z,15.73
2022-11-19T10:31:30.402Z,16.20
2022-11-19T10:34:05.908Z,16.23
2022-11-19T10:36:41.242Z,15.35
2022-11-19T10:39:18.162Z,14.25
2022-11-19T10:41:53.218Z,13.00
2022-11-19T10:44:41.050Z,16.40
2022-11-19T10:47:14.572Z,14.20
2022-11-19T10:49:43.752Z,14.15
2022-11-19T10:52:20.395Z,12.60
2022-11-19T10:54:49.846Z,13.18
2022-11-19T10:57:20.602Z,13.82
2022-11-19T10:59:52.284Z,12.95
2022-11-19T11:02:28.167Z,13.20
2022-11-19T11:05:18.274Z,16.00
2022-11-19T11:07:55.033Z,12.90
2022-11-19T11:10:36.009Z,19.63
2022-11-19T11:13:32.958Z,17.63
2022-11-19T11:16:06.385Z,15.20
2022-11-19T11:18:34.558Z,13.55
2022-11-19T11:21:02.376Z,13.77
2022-11-19T11:23:31.237Z,14.25
2022-11-19T11:26:06.213Z,12.57
2022-11-19T11:28:34.584Z,13.13
2022-11-19T11:31:05.406Z,13.40
2022-11-19T11:33:36.768Z,12.40
2022-11-19T11:36:08.278Z,13.25
2022-11-19T11:38:43.373Z,15.02
2022-11-19T11:42:02.392Z,12.98
2022-11-19T11:44:04.102Z,13.27
2022-11-19T11:46:39.449Z,12.50
2022-11-19T11:49:12.721Z,12.38
2022-11-19T11:51:40.910Z,13.18
2022-11-19T11:54:18.409Z,12.43
2022-11-19T11:56:47.045Z,13.00
2022-11-19T11:59:22.624Z,13.00
2022-11-19T12:02:04.516Z,12.95
2022-11-19T12:04:32.781Z,12.82
2022-11-19T12:07:13.827Z,12.85
2022-11-19T12:09:50.412Z,12.88
2022-11-19T12:12:28.639Z,14.88
2022-11-19T12:15:01.801Z,13.88
2022-11-19T12:17:44.188Z,13.05
2022-11-19T12:20:24.860Z,14.13
2022-11-19T12:23:07.953Z,13.55
2022-11-19T12:25:41.138Z,12.98
2022-11-19T12:28:29.277Z,12.90
2022-11-19T12:31:06.526Z,14.57
2022-11-19T12:33:54.394Z,15.32
2022-11-19T12:36:31.214Z,12.60
2022-11-19T12:39:04.062Z,12.70
2022-11-19T12:41:53.415Z,12.75
2022-11-19T12:44:33.246Z,12.02
2022-11-19T12:47:10.708Z,12.00
2022-11-19T12:50:01.024Z,12.95
2022-11-19T12:52:41.508Z,11.95
2022-11-19T12:55:18.806Z,12.77
2022-11-19T12:57:54.789Z,12.48
2022-11-19T13:00:24.198Z,12.57
2022-11-19T13:03:01.384Z,12.90
2022-11-19T13:05:39.613Z,12.50
2022-11-19T13:08:15.600Z,12.60
2022-11-19T13:10:50.667Z,13.57
2022-11-19T13:13:23.987Z,12.90
2022-11-19T13:15:59.983Z,15.23
2022-11-19T13:18:32.021Z,12.45
2022-11-19T13:21:04.902Z,12.30
2022-11-19T13:23:38.381Z,12.82
2022-11-19T13:26:12.068Z,12.40
2022-11-19T13:28:45.837Z,12.35
2022-11-19T13:31:19.905Z,11.55
2022-11-19T13:33:52.850Z,12.73
2022-11-19T13:36:28.864Z,13.32
2022-11-19T13:39:02.229Z,12.95
2022-11-19T13:41:34.260Z,12.88
2022-11-19T13:44:20.053Z,12.20
2022-11-19T13:46:51.393Z,13.00
2022-11-19T13:49:24.172Z,11.75
2022-11-19T13:51:57.864Z,12.40
2022-11-19T13:54:28.348Z,14.55
2022-11-19T13:57:00.335Z,11.90
2022-11-19T13:59:36.769Z,13.10
2022-11-19T14:02:42.328Z,12.93
2022-11-19T14:05:36.609Z,12.27
2022-11-19T14:08:24.818Z,12.48
2022-11-19T14:11:09.299Z,11.48
2022-11-19T14:13:55.275Z,13.15
2022-11-19T14:16:52.270Z,13.98
2022-11-19T14:19:37.654Z,12.48
2022-11-19T14:22:50.202Z,14.00
2022-11-19T14:26:02.596Z,11.55
2022-11-19T14:28:47.991Z,12.10
2022-11-19T14:31:16.511Z,11.13
2022-11-19T14:34:01.274Z,11.70
2022-11-19T14:36:48.480Z,11.30
2022-11-19T14:39:23.198Z,11.52
2022-11-19T14:42:13.644Z,11.80
2022-11-19T14:44:41.858Z,11.63
2022-11-19T14:47:33.445Z,12.75
2022-11-19T14:50:04.061Z,12.02
2022-11-19T14:52:34.896Z,12.73
2022-11-19T14:55:06.727Z,12.65
2022-11-19T14:57:38.755Z,14.02
2022-11-19T15:00:27.032Z,12.95
2022-11-19T15:02:55.437Z,12.15
2022-11-19T15:05:29.118Z,13.98
2022-11-19T15:08:31.051Z,13.07
2022-11-19T15:11:08.115Z,12.73
2022-11-19T15:13:39.184Z,14.50
2022-11-19T15:16:13.266Z,14.00
2022-11-19T15:19:08.959Z,12.95
2022-11-19T15:21:54.099Z,13.30
2022-11-19T15:24:36.016Z,12.82
2022-11-19T15:27:15.897Z,12.63
2022-11-19T15:30:05.526Z,12.48
2022-11-19T15:32:46.671Z,12.70
2022-11-19T15:35:34.220Z,11.55
2022-11-19T15:38:09.393Z,11.70
2022-11-19T15:40:40.666Z,11.90
2022-11-19T15:43:17.969Z,11.00
2022-11-19T15:45:52.331Z,11.25
2022-11-19T15:48:24.831Z,11.45
2022-11-19T15:50:53.220Z,12.10
2022-11-19T15:53:23.063Z,11.75
2022-11-19T15:55:54.676Z,11.48
2022-11-19T15:58:36.252Z,11.80
2022-11-19T16:01:06.867Z,10.85
2022-11-19T16:03:38.147Z,11.15
2022-11-19T16:06:10.208Z,11.50
2022-11-19T16:08:39.137Z,10.80
2022-11-19T16:11:24.388Z,10.88
2022-11-19T16:14:10.734Z,11.35
2022-11-19T16:16:58.312Z,10.48
2022-11-19T16:19:25.969Z,10.18
2022-11-19T16:21:58.035Z,10.60
2022-11-19T16:24:45.984Z,12.10
2022-11-19T16:27:20.945Z,10.32
2022-11-19T16:29:48.738Z,10.27
2022-11-19T16:32:19.876Z,10.38
2022-11-19T16:34:47.840Z,10.52
2022-11-19T16:37:17.074Z,10.30
2022-11-19T16:39:51.396Z,10.02
2022-11-19T16:42:26.403Z,10.00
2022-11-19T16:44:56.346Z,9.88
2022-11-19T16:47:30.878Z,10.10
2022-11-19T16:50:07.797Z,10.27
2022-11-19T16:52:40.294Z,9.95
2022-11-19T16:57:58.769Z,11.85
2022-11-19T17:00:31.544Z,10.45
2022-11-19T17:03:02.123Z,10.13
2022-11-19T17:05:29.825Z,10.50
2022-11-19T17:08:06.861Z,10.48
2022-11-19T17:10:35.420Z,10.95
2022-11-19T17:13:16.044Z,11.20
2022-11-19T17:15:45.168Z,10.38
2022-11-19T17:18:20.161Z,13.38
2022-11-19T17:20:52.548Z,11.02
2022-11-19T17:23:22.301Z,13.32
2022-11-19T17:25:52.633Z,12.93
2022-11-19T17:28:22.246Z,14.13
2022-11-19T17:30:50.639Z,14.27
2022-11-19T17:33:24.322Z,16.38
2022-11-19T17:35:52.961Z,11.05
2022-11-19T17:38:27.120Z,14.18
2022-11-19T17:40:57.602Z,16.33
2022-11-19T17:43:48.150Z,12.93
2022-11-19T17:46:15.922Z,12.43
2022-11-19T17:48:46.414Z,12.73
2022-11-19T17:51:16.501Z,14.57
2022-11-19T17:53:44.304Z,13.63
2022-11-19T17:56:20.283Z,13.50
2022-11-19T17:58:48.189Z,18.58
2022-11-19T18:01:20.217Z,13.70
2022-11-19T18:03:55.234Z,18.27
2022-11-19T18:06:23.031Z,13.43
2022-11-19T18:08:50.786Z,13.63
2022-11-19T18:11:20.262Z,14.35
2022-11-19T18:13:50.879Z,14.20
2022-11-19T18:16:21.596Z,13.57
2022-11-19T18:18:50.776Z,13.25
2022-11-19T18:21:21.197Z,14.13
2022-11-19T18:23:50.592Z,14.55
2022-11-19T18:26:19.837Z,15.95
2022-11-19T18:28:49.096Z,13.02
2022-11-19T18:31:20.445Z,15.35
2022-11-19T18:33:49.197Z,14.40
2022-11-19T18:36:19.033Z,14.57
2022-11-19T18:38:46.978Z,13.60
2022-11-19T18:41:16.117Z,13.77
2022-11-19T18:44:01.169Z,13.50
2022-11-19T18:46:28.856Z,14.57
2022-11-19T18:48:56.733Z,14.43
2022-11-19T18:51:27.517Z,15.45
2022-11-19T18:53:55.226Z,14.15
2022-11-19T18:56:22.976Z,14.50
2022-11-19T18:58:50.782Z,16.15
2022-11-19T19:01:18.761Z,15.45
2022-11-19T19:03:46.573Z,14.65
2022-11-19T19:06:15.732Z,14.48
2022-11-19T19:08:49.857Z,18.83
2022-11-19T19:11:35.198Z,21.52
2022-11-19T19:14:07.853Z,19.52
2022-11-19T19:16:36.307Z,17.85
2022-11-19T19:19:07.211Z,20.85
2022-11-19T19:21:35.361Z,15.07
2022-11-19T19:24:07.207Z,16.25
2022-11-19T19:26:35.002Z,17.10
2022-11-19T19:29:03.276Z,20.38
2022-11-19T19:31:31.333Z,16.90
2022-11-19T19:33:59.415Z,17.17
2022-11-19T19:36:27.846Z,28.52
2022-11-19T19:38:55.833Z,17.75
2022-11-19T19:41:27.076Z,16.42
2022-11-19T19:43:57.254Z,18.20
2022-11-19T19:46:25.522Z,15.68
2022-11-19T19:48:55.044Z,15.57
2022-11-19T19:51:24.724Z,14.98
2022-11-19T19:53:53.036Z,17.45
2022-11-19T19:56:23.252Z,16.85
2022-11-19T19:58:53.124Z,17.42
2022-11-19T20:01:24.201Z,17.10
2022-11-19T20:03:54.693Z,19.20
2022-11-19T20:06:24.473Z,16.50
2022-11-19T20:08:52.422Z,18.65
2022-11-19T20:11:21.670Z,21.73
2022-11-19T20:13:49.841Z,17.95
2022-11-19T20:16:20.918Z,18.42
2022-11-19T20:18:50.832Z,17.33
2022-11-19T20:21:21.363Z,20.98
2022-11-19T20:23:49.399Z,22.40
2022-11-19T20:26:28.539Z,16.98
2022-11-19T20:28:57.660Z,16.20
2022-11-19T20:31:29.008Z,16.98
2022-11-19T20:33:58.785Z,16.10
2022-11-19T20:36:29.113Z,17.55
2022-11-19T20:38:58.907Z,18.27
2022-11-19T20:41:45.718Z,17.55
2022-11-19T20:44:21.630Z,17.55
2022-11-19T20:46:53.317Z,15.77
2022-11-19T20:49:23.708Z,17.85
2022-11-19T20:51:52.904Z,16.27
2022-11-19T20:54:21.419Z,15.45
2022-11-19T20:56:49.951Z,15.90
2022-11-19T20:59:20.146Z,15.75
2022-11-19T21:01:49.465Z,16.10
2022-11-19T21:04:19.434Z,16.40
2022-11-19T21:06:47.717Z,18.80
2022-11-19T21:09:16.419Z,18.08
2022-11-19T21:11:44.270Z,17.67
2022-11-19T21:14:12.263Z,16.27
2022-11-19T21:16:40.141Z,16.48
2022-11-19T21:19:08.096Z,15.50
2022-11-19T21:21:37.378Z,15.68
2022-11-19T21:24:05.767Z,15.35
2022-11-19T21:26:33.762Z,15.40
2022-11-19T21:29:01.656Z,15.60
2022-11-19T21:31:39.574Z,16.92
2022-11-19T21:34:08.449Z,15.88
2022-11-19T21:36:38.159Z,15.07
2022-11-19T21:39:07.297Z,16.25
2022-11-19T21:41:35.228Z,15.95
2022-11-19T21:44:03.815Z,16.25
2022-11-19T21:46:32.019Z,15.50
2022-11-19T21:49:00.194Z,14.80
2022-11-19T21:51:28.097Z,14.18
2022-11-19T21:53:58.475Z,13.25
2022-11-19T21:56:27.971Z,16.30
2022-11-19T22:02:15.700Z,16.13
2022-11-19T22:04:43.582Z,15.68
2022-11-19T22:07:11.552Z,17.55
2022-11-19T22:09:40.810Z,18.92
2022-11-19T22:12:08.773Z,21.55
2022-11-19T22:14:36.544Z,22.13
2022-11-19T22:17:04.547Z,20.35
2022-11-19T22:19:32.409Z,19.70
2022-11-19T22:22:00.311Z,18.40
2022-11-19T22:24:28.116Z,17.95
2022-11-19T22:26:57.415Z,19.95
2022-11-19T22:29:25.505Z,18.65
2022-11-19T22:31:53.329Z,19.13
2022-11-19T22:34:21.149Z,21.13
2022-11-19T22:36:48.987Z,20.83
2022-11-19T22:39:18.522Z,20.02
2022-11-19T22:41:46.587Z,19.48
2022-11-19T22:44:18.429Z,19.33
2022-11-19T22:46:46.329Z,18.65
2022-11-19T22:49:14.262Z,18.63
2022-11-19T22:51:42.196Z,18.23
2022-11-19T22:54:11.745Z,16.73
2022-11-19T22:56:39.532Z,17.58
2022-11-19T22:59:07.247Z,17.27
2022-11-19T23:01:37.117Z,17.75
2022-11-19T23:04:07.683Z,17.45
2022-11-19T23:06:36.459Z,18.80
2022-11-19T23:09:05.020Z,19.40
2022-11-19T23:11:50.711Z,19.30
2022-11-19T23:14:20.455Z,18.35
2022-11-19T23:16:49.863Z,16.88
2022-11-19T23:19:19.373Z,17.10
2022-11-19T23:21:47.828Z,18.25
2022-11-19T23:24:15.810Z,20.98
2022-11-19T23:26:43.541Z,20.23
2022-11-19T23:29:11.252Z,22.10
2022-11-19T23:31:40.147Z,19.10
2022-11-19T23:34:09.702Z,19.02
2022-11-19T23:36:39.553Z,33.10
2022-11-19T23:39:09.902Z,21.98
2022-11-19T23:41:37.747Z,18.67
2022-11-19T23:44:05.636Z,18.58
2022-11-19T23:46:35.328Z,19.60
2022-11-19T23:49:03.547Z,20.60
2022-11-19T23:51:34.558Z,20.27
2022-11-19T23:54:02.548Z,20.77
2022-11-19T23:56:32.128Z,19.23
2022-11-19T23:59:02.106Z,19.02
